Hlavní strana
METAR-TAF:

METAR-TAF

Letiště :

Evenes, Norsko

zeměpisná šířka: 68-31N, zeměpisná délka: 016-41E, výška: 26 m

Aktuální stav počasí

Zpráva byla vytvořena před 18 minutami, v 23:20 UTC
Jižní vítr 11 kt
Teplota 8°C
Vlhkost vzduchu 71%
Tlak 999 hPa
Viditelnost 10 km a více
slabé mrholení

METAR: ENEV 202320Z AUTO 17011KT 9999 -DZ BKN040/// OVC053/// 08/03 Q0999 RMK WIND 1400FT 17017KT

Čas: 01:38 (23:38 UTC)

Předpověď počasí

Zpráva byla vytvořena před 12 hodinami a 38 minutami, v 11:00 UTC
Předpověď platná od 20 v 12 UTC do 20 v 15 UTC
Jižní vítr 9 kt
Viditelnost 10 km a více
Skoro jasno ve výšce 1500 ft
Oblačno až skoro zataženo ve výšce 3000 ft
slabé dešťové přeháňky

TAF: ENEV 201100Z 2012/2015 18009KT 9999 -SHRA FEW015 BKN030

Stav a předpovědi počasí z více než 4 000 letišť (zprávy METAR a TAF).

Červené a žluté tečky na mapě představují dostupné meteorologické stanice.

Když kurzor umístíte na tečku, zobrazí se název stanice.

Pak kliknutím zobrazíte stav a předpověď počasí.

Chcete-li změnit mapu, kliknutím na zelené tlačítko se znaménkem +mapu přiblížíte, kliknutím na zelené tlačítko se znaménkem – mapu oddálíte a kliknutím na zelené šipky přejdete na sousední mapy.


METAR-TAF: